Time;durP1;ratioP1;P1;durP2;ratioP2;P2;SDS_P1;SDS_P2;PMS_P1;PMS_P2;Temp;Humidity;BMP_temperature;BMP_pressure;BME280_temperature;BME280_humidity;BME280_pressure;Samples;Min_cycle;Max_cycle;Signal;HPM_P1;HPM_P2
2022/10/22 00:00:53;;;;;;;30.05;17.58;;;;;;;;;;4993265;28;20122;-77
2022/10/22 00:03:18;;;;;;;30.15;17.67;;;;;;;;;;4975524;28;20030;-76
2022/10/22 00:05:44;;;;;;;31.27;17.92;;;;;;;;;;4975318;28;20572;-76
2022/10/22 00:08:09;;;;;;;28.52;17.15;;;;;;;;;;4992643;28;20526;-77
2022/10/22 00:10:37;;;;;;;35.13;17.83;;;;;;;;;;4975098;28;20471;-76
2022/10/22 00:13:03;;;;;;;30.05;18.40;;;;;;;;;;4959090;28;20069;-76
2022/10/22 00:15:28;;;;;;;32.40;18.23;;;;;;;;;;4992688;28;20069;-77
2022/10/22 00:17:54;;;;;;;31.90;17.23;;;;;;;;;;4992880;28;20026;-76
2022/10/22 00:20:19;;;;;;;35.95;18.38;;;;;;;;;;4974857;28;20108;-77
2022/10/22 00:22:45;;;;;;;35.15;18.02;;;;;;;;;;4975121;28;20030;-76
2022/10/22 00:25:11;;;;;;;39.55;19.42;;;;;;;;;;4970336;28;20100;-76
2022/10/22 00:27:36;;;;;;;34.78;19.00;;;;;;;;;;4972775;28;20070;-76
2022/10/22 00:30:03;;;;;;;42.63;19.60;;;;;;;;;;4972342;28;20075;-77
2022/10/22 00:32:29;;;;;;;38.25;19.38;;;;;;;;;;4955122;28;20189;-77
2022/10/22 00:34:54;;;;;;;33.42;18.45;;;;;;;;;;4971193;28;20515;-76
2022/10/22 00:37:20;;;;;;;37.72;18.25;;;;;;;;;;4971494;28;20042;-76
2022/10/22 00:39:45;;;;;;;35.55;18.75;;;;;;;;;;4971581;28;20083;-75
2022/10/22 00:42:20;;;;;;;34.65;18.75;;;;;;;;;;4971081;28;20165;-77
2022/10/22 00:45:14;;;;;;;40.80;19.92;;;;;;;;;;4971641;28;20037;-75
2022/10/22 00:47:48;;;;;;;38.92;20.83;;;;;;;;;;4972915;28;20057;-76
2022/10/22 00:50:28;;;;;;;34.33;19.08;;;;;;;;;;4972537;28;20118;-76
2022/10/22 00:52:56;;;;;;;34.00;19.13;;;;;;;;;;4971365;28;20030;-76
2022/10/22 00:55:24;;;;;;;35.38;19.25;;;;;;;;;;4971151;28;20117;-76
2022/10/22 00:57:50;;;;;;;32.15;18.63;;;;;;;;;;4971128;28;20456;-75
2022/10/22 01:00:16;;;;;;;28.77;17.30;;;;;;;;;;4972604;28;20407;-79
2022/10/22 01:02:42;;;;;;;33.28;18.23;;;;;;;;;;4971067;28;20049;-79
2022/10/22 01:05:08;;;;;;;28.50;17.58;;;;;;;;;;4971095;28;20031;-79
2022/10/22 01:07:41;;;;;;;32.22;17.77;;;;;;;;;;4954735;28;20027;-79
2022/10/22 01:10:20;;;;;;;37.30;19.83;;;;;;;;;;4972249;28;20027;-78
2022/10/22 01:13:13;;;;;;;34.80;17.95;;;;;;;;;;4972477;28;20483;-79
2022/10/22 01:15:58;;;;;;;35.50;18.45;;;;;;;;;;4972472;28;20812;-78
2022/10/22 01:18:32;;;;;;;36.78;17.95;;;;;;;;;;4971421;28;20034;-78
2022/10/22 01:21:31;;;;;;;36.63;18.30;;;;;;;;;;4970875;28;20027;-79
2022/10/22 01:24:11;;;;;;;34.83;17.50;;;;;;;;;;4971242;28;20391;-78
2022/10/22 01:26:48;;;;;;;41.22;21.25;;;;;;;;;;4970869;28;20058;-78
2022/10/22 01:29:43;;;;;;;46.47;21.95;;;;;;;;;;4971759;28;20038;-77
2022/10/22 01:32:16;;;;;;;39.35;21.38;;;;;;;;;;4968202;28;20046;-79
2022/10/22 01:34:45;;;;;;;41.67;21.52;;;;;;;;;;4974497;28;20376;-79
2022/10/22 01:37:13;;;;;;;38.00;21.30;;;;;;;;;;4973793;28;20117;-80
2022/10/22 01:39:41;;;;;;;35.72;20.52;;;;;;;;;;4976559;28;20022;-78
2022/10/22 01:42:06;;;;;;;39.65;21.02;;;;;;;;;;4973034;28;20041;-79
2022/10/22 01:44:34;;;;;;;44.45;22.15;;;;;;;;;;4970963;28;20031;-79
2022/10/22 01:47:06;;;;;;;43.55;21.50;;;;;;;;;;4970162;28;20030;-78
2022/10/22 01:50:19;;;;;;;34.63;20.02;;;;;;;;;;4970840;28;20255;-77
2022/10/22 01:53:06;;;;;;;38.95;19.35;;;;;;;;;;4969357;28;20027;-79
2022/10/22 01:55:50;;;;;;;33.88;18.52;;;;;;;;;;4969647;28;20081;-77
2022/10/22 01:58:21;;;;;;;32.15;18.35;;;;;;;;;;4971266;28;20475;-78
2022/10/22 02:00:58;;;;;;;35.10;18.42;;;;;;;;;;4970012;28;20029;-79
2022/10/22 02:03:34;;;;;;;33.30;18.35;;;;;;;;;;4969739;28;20053;-79
2022/10/22 02:06:04;;;;;;;32.42;19.38;;;;;;;;;;4970229;28;20045;-78
2022/10/22 02:08:32;;;;;;;34.17;19.05;;;;;;;;;;4971234;28;20448;-78
2022/10/22 02:10:59;;;;;;;31.15;18.83;;;;;;;;;;4969766;28;20031;-78
2022/10/22 02:13:38;;;;;;;28.17;18.92;;;;;;;;;;4969594;28;20363;-77
2022/10/22 02:16:07;;;;;;;36.53;19.92;;;;;;;;;;4969886;28;20118;-79
2022/10/22 02:18:34;;;;;;;34.00;19.20;;;;;;;;;;4971328;28;20045;-78
2022/10/22 02:21:01;;;;;;;37.50;18.83;;;;;;;;;;4971254;28;20451;-79
2022/10/22 02:23:27;;;;;;;38.97;19.90;;;;;;;;;;4971024;28;20022;-78
2022/10/22 02:26:05;;;;;;;33.75;18.40;;;;;;;;;;4969520;28;20372;-78
2022/10/22 02:28:37;;;;;;;39.58;21.15;;;;;;;;;;4971261;28;20085;-78
2022/10/22 02:31:16;;;;;;;45.40;21.80;;;;;;;;;;4969907;28;20041;-78
2022/10/22 02:33:46;;;;;;;39.55;21.55;;;;;;;;;;4954073;28;20063;-78
2022/10/22 02:36:14;;;;;;;39.50;21.80;;;;;;;;;;4970081;28;20216;-79
2022/10/22 02:38:41;;;;;;;42.60;22.05;;;;;;;;;;4970355;28;20035;-78
2022/10/22 02:41:06;;;;;;;38.22;23.13;;;;;;;;;;4971881;28;20034;-79
2022/10/22 02:43:48;;;;;;;43.55;21.98;;;;;;;;;;4969746;28;20043;-79
2022/10/22 02:46:13;;;;;;;40.53;21.67;;;;;;;;;;4969761;28;20035;-78
2022/10/22 02:48:39;;;;;;;37.60;22.05;;;;;;;;;;4970999;28;20464;-79
2022/10/22 02:51:05;;;;;;;42.33;22.08;;;;;;;;;;4969509;28;20486;-79
2022/10/22 02:53:30;;;;;;;40.63;20.52;;;;;;;;;;4970997;28;20033;-79
2022/10/22 02:55:56;;;;;;;38.13;19.88;;;;;;;;;;4971185;28;20033;-79
2022/10/22 02:58:21;;;;;;;38.78;20.90;;;;;;;;;;4969821;28;20034;-79
2022/10/22 03:00:48;;;;;;;43.55;20.63;;;;;;;;;;4971208;28;20098;-78
2022/10/22 03:03:13;;;;;;;42.25;21.75;;;;;;;;;;4969689;28;20031;-77
2022/10/22 03:05:38;;;;;;;35.90;20.98;;;;;;;;;;4972480;28;20035;-78
2022/10/22 03:08:04;;;;;;;43.75;20.52;;;;;;;;;;4987195;28;20042;-78
2022/10/22 03:10:30;;;;;;;34.63;19.65;;;;;;;;;;4993982;28;20030;-78
2022/10/22 03:12:55;;;;;;;44.20;20.10;;;;;;;;;;4994146;28;20069;-79
2022/10/22 03:15:21;;;;;;;42.38;21.35;;;;;;;;;;4992478;28;20635;-78
2022/10/22 03:17:46;;;;;;;40.72;22.25;;;;;;;;;;4994195;28;20193;-78
2022/10/22 03:20:12;;;;;;;43.58;21.15;;;;;;;;;;4994614;28;20034;-78
2022/10/22 03:22:40;;;;;;;35.58;19.35;;;;;;;;;;4993189;28;20030;-78
2022/10/22 03:25:18;;;;;;;37.42;19.83;;;;;;;;;;4992489;28;20060;-79
2022/10/22 03:27:44;;;;;;;41.38;21.45;;;;;;;;;;4975764;28;20035;-79
2022/10/22 03:30:12;;;;;;;40.10;20.13;;;;;;;;;;4994134;28;20050;-79
2022/10/22 03:32:37;;;;;;;41.92;21.38;;;;;;;;;;4993746;28;20474;-79
2022/10/22 03:35:04;;;;;;;39.90;21.63;;;;;;;;;;4993205;28;20085;-79
2022/10/22 03:37:30;;;;;;;37.05;20.48;;;;;;;;;;4993246;28;20080;-79
2022/10/22 03:39:56;;;;;;;36.78;19.65;;;;;;;;;;4976049;28;20023;-79
2022/10/22 03:42:22;;;;;;;38.28;20.67;;;;;;;;;;4993441;28;20427;-78
2022/10/22 03:44:47;;;;;;;39.97;20.08;;;;;;;;;;4976029;28;20113;-79
2022/10/22 03:47:13;;;;;;;34.28;19.35;;;;;;;;;;4977885;28;20221;-78
2022/10/22 03:49:38;;;;;;;33.20;18.45;;;;;;;;;;4998505;28;20039;-76
2022/10/22 03:52:06;;;;;;;36.10;19.60;;;;;;;;;;4975703;28;20202;-74
2022/10/22 03:54:32;;;;;;;36.53;18.95;;;;;;;;;;4976061;28;20121;-75
2022/10/22 03:56:59;;;;;;;33.28;18.45;;;;;;;;;;4975796;28;20122;-75
2022/10/22 03:59:24;;;;;;;32.10;18.15;;;;;;;;;;4993553;28;20041;-75
2022/10/22 04:01:50;;;;;;;35.03;18.85;;;;;;;;;;4976245;28;20702;-76
2022/10/22 04:04:15;;;;;;;31.23;18.15;;;;;;;;;;4976070;28;20352;-76
2022/10/22 04:06:41;;;;;;;36.90;18.30;;;;;;;;;;4993042;28;20150;-76
2022/10/22 04:09:07;;;;;;;31.23;17.80;;;;;;;;;;4975471;28;20030;-75
2022/10/22 04:11:32;;;;;;;33.08;17.77;;;;;;;;;;4975037;28;20076;-75
2022/10/22 04:13:58;;;;;;;34.05;18.98;;;;;;;;;;4975110;28;20091;-75
2022/10/22 04:16:23;;;;;;;37.95;18.60;;;;;;;;;;4991991;28;20033;-76
2022/10/22 04:18:49;;;;;;;30.15;17.42;;;;;;;;;;4975413;28;20030;-75
2022/10/22 04:21:17;;;;;;;34.63;19.00;;;;;;;;;;4975343;28;20031;-75
2022/10/22 04:23:47;;;;;;;40.22;20.00;;;;;;;;;;4975022;28;20042;-75
2022/10/22 04:26:14;;;;;;;34.45;18.33;;;;;;;;;;4974967;28;20144;-76
2022/10/22 04:28:40;;;;;;;36.00;19.05;;;;;;;;;;4959172;28;20130;-76
2022/10/22 04:31:11;;;;;;;36.28;18.00;;;;;;;;;;4992922;28;20375;-76
2022/10/22 04:33:37;;;;;;;35.63;18.13;;;;;;;;;;4975044;28;20034;-75
2022/10/22 04:36:11;;;;;;;31.65;17.05;;;;;;;;;;4975113;28;20034;-75
2022/10/22 04:38:37;;;;;;;33.47;18.70;;;;;;;;;;4974803;28;20066;-75
2022/10/22 04:41:14;;;;;;;31.88;18.00;;;;;;;;;;4992637;28;20109;-76
2022/10/22 04:43:41;;;;;;;42.03;17.38;;;;;;;;;;4974869;28;20030;-75
2022/10/22 04:46:10;;;;;;;31.00;17.83;;;;;;;;;;4993172;28;20132;-76
2022/10/22 04:48:37;;;;;;;33.28;17.02;;;;;;;;;;4993072;28;20169;-75
2022/10/22 04:51:03;;;;;;;33.42;18.70;;;;;;;;;;4992936;28;20438;-75
2022/10/22 04:53:29;;;;;;;47.28;20.45;;;;;;;;;;4974575;28;20026;-75
2022/10/22 04:56:04;;;;;;;49.33;21.67;;;;;;;;;;4992625;28;20040;-76
2022/10/22 04:58:30;;;;;;;36.63;19.42;;;;;;;;;;4974438;28;20030;-75
2022/10/22 05:00:55;;;;;;;33.85;18.60;;;;;;;;;;4992526;28;20029;-76
2022/10/22 05:03:24;;;;;;;34.35;19.33;;;;;;;;;;4974634;28;20045;-75
2022/10/22 05:05:49;;;;;;;34.85;20.05;;;;;;;;;;4974298;28;20026;-75
2022/10/22 05:08:14;;;;;;;41.13;20.13;;;;;;;;;;4992147;28;20022;-75
2022/10/22 05:10:40;;;;;;;36.17;21.20;;;;;;;;;;4974314;28;20406;-75
2022/10/22 05:13:05;;;;;;;38.88;21.55;;;;;;;;;;4974621;28;20034;-76
2022/10/22 05:15:32;;;;;;;34.85;18.92;;;;;;;;;;4991307;28;20442;-77
2022/10/22 05:17:58;;;;;;;36.35;20.15;;;;;;;;;;4974495;28;20038;-76
2022/10/22 05:20:23;;;;;;;38.92;20.20;;;;;;;;;;4974716;28;20080;-76
2022/10/22 05:22:49;;;;;;;34.22;19.73;;;;;;;;;;4991561;28;20034;-75
2022/10/22 05:25:14;;;;;;;35.92;19.15;;;;;;;;;;4973865;28;20080;-77
2022/10/22 05:27:40;;;;;;;33.70;18.77;;;;;;;;;;4990509;28;20121;-77
2022/10/22 05:30:06;;;;;;;31.85;18.38;;;;;;;;;;4991918;28;20026;-77
2022/10/22 05:32:34;;;;;;;34.80;19.40;;;;;;;;;;4973998;28;20041;-76
2022/10/22 05:34:59;;;;;;;31.25;18.20;;;;;;;;;;4974143;28;20113;-76
2022/10/22 05:37:25;;;;;;;31.60;17.15;;;;;;;;;;4991279;28;20459;-76
2022/10/22 05:39:50;;;;;;;32.85;19.05;;;;;;;;;;4991250;28;20058;-76
2022/10/22 05:42:16;;;;;;;33.22;19.65;;;;;;;;;;4974169;28;20041;-75
2022/10/22 05:44:41;;;;;;;35.58;18.88;;;;;;;;;;4973647;28;20581;-75
2022/10/22 05:47:08;;;;;;;34.80;18.55;;;;;;;;;;4973862;28;20659;-76
2022/10/22 05:49:34;;;;;;;35.42;18.98;;;;;;;;;;4972949;28;20479;-77
2022/10/22 05:52:00;;;;;;;35.72;18.88;;;;;;;;;;4957075;28;20030;-76
2022/10/22 05:54:25;;;;;;;32.20;18.35;;;;;;;;;;4973568;28;20041;-77
2022/10/22 05:56:52;;;;;;;39.10;19.90;;;;;;;;;;4990793;28;20026;-77
2022/10/22 05:59:17;;;;;;;33.42;19.35;;;;;;;;;;4990696;28;20042;-77
2022/10/22 06:01:42;;;;;;;32.47;19.25;;;;;;;;;;4973402;28;20408;-76
2022/10/22 06:04:11;;;;;;;33.83;19.48;;;;;;;;;;4991053;28;20030;-77
2022/10/22 06:06:43;;;;;;;36.78;20.70;;;;;;;;;;4991057;28;20463;-77
2022/10/22 06:09:21;;;;;;;36.67;19.05;;;;;;;;;;4973455;28;20037;-76
2022/10/22 06:11:47;;;;;;;34.78;19.33;;;;;;;;;;4973322;28;20034;-76
2022/10/22 06:14:13;;;;;;;39.92;19.83;;;;;;;;;;4973587;28;20034;-77
2022/10/22 06:16:39;;;;;;;37.95;19.20;;;;;;;;;;4990974;28;20036;-77
2022/10/22 06:19:10;;;;;;;34.75;20.13;;;;;;;;;;4990800;28;20445;-77
2022/10/22 06:21:35;;;;;;;39.88;20.88;;;;;;;;;;4972221;28;20022;-77
2022/10/22 06:24:02;;;;;;;33.88;20.50;;;;;;;;;;4972670;28;20034;-76
2022/10/22 06:26:28;;;;;;;42.65;21.77;;;;;;;;;;4969481;28;20078;-76
2022/10/22 06:28:55;;;;;;;32.92;20.05;;;;;;;;;;4971257;28;20081;-76
2022/10/22 06:31:22;;;;;;;40.00;21.00;;;;;;;;;;4970342;28;20210;-76
2022/10/22 06:33:47;;;;;;;37.58;20.00;;;;;;;;;;4970213;28;20041;-77
2022/10/22 06:36:15;;;;;;;34.45;19.20;;;;;;;;;;4970298;28;20035;-77
2022/10/22 06:38:42;;;;;;;42.00;20.75;;;;;;;;;;4971262;28;20099;-77
2022/10/22 06:41:13;;;;;;;35.60;20.15;;;;;;;;;;4969898;28;20027;-76
2022/10/22 06:43:40;;;;;;;33.60;20.43;;;;;;;;;;4969620;28;20031;-77
2022/10/22 06:46:11;;;;;;;35.03;20.77;;;;;;;;;;4969627;28;20082;-76
2022/10/22 06:48:38;;;;;;;39.00;20.05;;;;;;;;;;4969334;28;20027;-78
2022/10/22 06:51:06;;;;;;;35.85;21.23;;;;;;;;;;4969718;28;20109;-78
2022/10/22 06:53:32;;;;;;;32.92;19.75;;;;;;;;;;4970805;28;20276;-77
2022/10/22 06:55:57;;;;;;;36.55;19.42;;;;;;;;;;4969627;28;20141;-77
2022/10/22 06:58:23;;;;;;;38.47;20.05;;;;;;;;;;4971879;28;20042;-77
2022/10/22 07:00:49;;;;;;;38.33;19.95;;;;;;;;;;4970315;28;20026;-77
2022/10/22 07:03:15;;;;;;;39.20;21.50;;;;;;;;;;4970284;28;20041;-77
2022/10/22 07:05:40;;;;;;;39.45;20.40;;;;;;;;;;4953480;28;20126;-76
2022/10/22 07:08:08;;;;;;;33.78;20.02;;;;;;;;;;4970036;28;20027;-80
2022/10/22 07:10:33;;;;;;;34.05;19.35;;;;;;;;;;4969993;28;20491;-78
2022/10/22 07:12:59;;;;;;;31.17;19.17;;;;;;;;;;4970113;28;20130;-77
2022/10/22 07:15:24;;;;;;;42.25;22.90;;;;;;;;;;4969537;28;20023;-77
2022/10/22 07:17:53;;;;;;;32.03;19.05;;;;;;;;;;4971026;28;20113;-77
2022/10/22 07:20:20;;;;;;;37.38;19.23;;;;;;;;;;4969408;28;20023;-77
2022/10/22 07:22:45;;;;;;;33.80;18.58;;;;;;;;;;4969612;28;20038;-77
2022/10/22 07:25:11;;;;;;;32.33;19.30;;;;;;;;;;4966023;28;20063;-77
2022/10/22 07:27:36;;;;;;;28.40;18.15;;;;;;;;;;4969420;28;20077;-77
2022/10/22 07:30:03;;;;;;;35.20;18.10;;;;;;;;;;4970721;28;20057;-76
2022/10/22 07:32:29;;;;;;;35.10;18.92;;;;;;;;;;4970201;28;20044;-78
2022/10/22 07:34:54;;;;;;;32.50;19.60;;;;;;;;;;4969925;28;20410;-77
2022/10/22 07:37:20;;;;;;;35.25;20.00;;;;;;;;;;4970152;28;20027;-77
2022/10/22 07:39:47;;;;;;;34.67;20.42;;;;;;;;;;4969614;28;20031;-77
2022/10/22 07:42:13;;;;;;;34.45;19.23;;;;;;;;;;4969594;28;20482;-76
2022/10/22 07:44:40;;;;;;;34.70;19.20;;;;;;;;;;4968964;28;20062;-77
2022/10/22 07:47:06;;;;;;;37.25;20.80;;;;;;;;;;4969361;28;20038;-77
2022/10/22 07:49:31;;;;;;;35.45;20.50;;;;;;;;;;4968923;28;20460;-77
2022/10/22 07:51:57;;;;;;;31.00;19.15;;;;;;;;;;4972524;28;20371;-76
2022/10/22 07:54:23;;;;;;;35.90;18.92;;;;;;;;;;4973036;28;20066;-77
2022/10/22 07:56:48;;;;;;;35.67;21.63;;;;;;;;;;4956845;28;20074;-77
2022/10/22 07:59:14;;;;;;;40.00;23.23;;;;;;;;;;4974288;28;20662;-77
2022/10/22 08:01:39;;;;;;;36.45;20.33;;;;;;;;;;4973515;28;20065;-77
2022/10/22 08:04:07;;;;;;;40.45;20.63;;;;;;;;;;4973468;28;20704;-77
2022/10/22 08:06:33;;;;;;;41.42;23.20;;;;;;;;;;4973356;28;20423;-77
2022/10/22 08:08:59;;;;;;;41.13;22.42;;;;;;;;;;4956265;28;20395;-77
2022/10/22 08:11:25;;;;;;;39.95;21.33;;;;;;;;;;4972363;28;20468;-77
2022/10/22 08:13:52;;;;;;;36.58;21.35;;;;;;;;;;4972272;28;20022;-77
2022/10/22 08:16:19;;;;;;;36.33;20.60;;;;;;;;;;4972394;28;20042;-78
2022/10/22 08:18:44;;;;;;;36.92;21.15;;;;;;;;;;4973667;28;20092;-78
2022/10/22 08:21:11;;;;;;;36.75;21.73;;;;;;;;;;4973804;28;20030;-77
2022/10/22 08:23:37;;;;;;;40.15;21.13;;;;;;;;;;4972264;28;20041;-77
2022/10/22 08:26:03;;;;;;;35.67;20.02;;;;;;;;;;4971895;28;20054;-77
2022/10/22 08:28:31;;;;;;;35.03;21.50;;;;;;;;;;4971686;28;20035;-76
2022/10/22 08:30:57;;;;;;;35.78;21.33;;;;;;;;;;4973077;28;20030;-76
2022/10/22 08:33:23;;;;;;;34.67;20.48;;;;;;;;;;4955878;28;20046;-78
2022/10/22 08:35:50;;;;;;;32.33;19.65;;;;;;;;;;4973268;28;20472;-77
2022/10/22 08:38:16;;;;;;;37.63;21.23;;;;;;;;;;4973328;28;20391;-77
2022/10/22 08:40:41;;;;;;;31.08;19.65;;;;;;;;;;4971648;28;20022;-76
2022/10/22 08:43:28;;;;;;;39.88;20.63;;;;;;;;;;4971891;28;20035;-77
2022/10/22 08:46:26;;;;;;;36.45;19.13;;;;;;;;;;4973107;28;20038;-77
2022/10/22 08:48:54;;;;;;;36.88;19.23;;;;;;;;;;4972458;28;20027;-77
2022/10/22 08:51:33;;;;;;;31.85;18.33;;;;;;;;;;4972094;28;20042;-78
2022/10/22 08:54:08;;;;;;;35.38;20.88;;;;;;;;;;4971710;28;20117;-77
2022/10/22 08:56:36;;;;;;;35.60;20.05;;;;;;;;;;4971475;28;20113;-77
2022/10/22 08:59:15;;;;;;;38.40;21.05;;;;;;;;;;4971437;28;20035;-77
2022/10/22 09:01:49;;;;;;;34.25;20.00;;;;;;;;;;4971118;28;20646;-78
2022/10/22 09:04:24;;;;;;;37.05;19.90;;;;;;;;;;4972897;28;20027;-78
2022/10/22 09:06:52;;;;;;;35.40;19.42;;;;;;;;;;4971269;28;20407;-77
2022/10/22 09:09:19;;;;;;;38.17;19.35;;;;;;;;;;4972853;28;20038;-77
2022/10/22 09:11:50;;;;;;;33.55;21.80;;;;;;;;;;4971022;28;20038;-77
2022/10/22 09:14:19;;;;;;;34.53;21.33;;;;;;;;;;4971588;28;20035;-78
2022/10/22 09:16:53;;;;;;;34.53;20.75;;;;;;;;;;4971348;28;20113;-77
2022/10/22 09:19:27;;;;;;;38.05;27.88;;;;;;;;;;4972698;28;20023;-78
2022/10/22 09:22:31;;;;;;;35.60;20.52;;;;;;;;;;4970947;28;20047;-77
2022/10/22 09:25:07;;;;;;;35.60;19.80;;;;;;;;;;4895935;29;20028;-76
2022/10/22 09:27:33;;;;;;;33.85;20.42;;;;;;;;;;4962568;28;20047;-78
2022/10/22 09:30:00;;;;;;;36.33;20.23;;;;;;;;;;4971080;28;20525;-79
2022/10/22 09:32:27;;;;;;;36.60;19.23;;;;;;;;;;4970758;28;20364;-78
2022/10/22 09:34:57;;;;;;;37.15;20.10;;;;;;;;;;4970602;28;20026;-77
2022/10/22 09:37:28;;;;;;;31.77;17.80;;;;;;;;;;4971301;28;20435;-77
2022/10/22 09:39:57;;;;;;;34.97;19.35;;;;;;;;;;4971779;28;20102;-78
2022/10/22 09:42:23;;;;;;;40.55;22.55;;;;;;;;;;4972894;28;20068;-77
2022/10/22 09:44:55;;;;;;;31.45;18.95;;;;;;;;;;4971515;28;20030;-78
2022/10/22 09:47:37;;;;;;;29.98;18.27;;;;;;;;;;4971027;28;20086;-77
2022/10/22 09:50:13;;;;;;;30.73;18.80;;;;;;;;;;4970156;28;20069;-77
2022/10/22 09:52:40;;;;;;;35.47;22.02;;;;;;;;;;4972076;28;20098;-76
2022/10/22 09:55:16;;;;;;;30.92;19.83;;;;;;;;;;4970083;28;20053;-77
2022/10/22 09:57:52;;;;;;;28.52;19.63;;;;;;;;;;4971660;28;20041;-77
2022/10/22 10:00:19;;;;;;;26.98;17.73;;;;;;;;;;4970295;28;20027;-78
2022/10/22 10:02:45;;;;;;;27.75;18.45;;;;;;;;;;4954137;28;20499;-78
2022/10/22 10:05:18;;;;;;;31.25;18.52;;;;;;;;;;4970741;28;20027;-78
2022/10/22 10:07:46;;;;;;;28.73;18.27;;;;;;;;;;4971459;28;20109;-77
2022/10/22 10:10:33;;;;;;;29.60;18.40;;;;;;;;;;4969939;28;20065;-77
2022/10/22 10:13:11;;;;;;;26.80;18.15;;;;;;;;;;4969953;28;20046;-78
2022/10/22 10:16:06;;;;;;;29.27;18.23;;;;;;;;;;4970884;28;20031;-78
2022/10/22 10:18:42;;;;;;;31.67;18.08;;;;;;;;;;4970130;28;20023;-77
2022/10/22 10:21:15;;;;;;;29.38;17.70;;;;;;;;;;4969799;28;20027;-77
2022/10/22 10:23:47;;;;;;;30.40;17.85;;;;;;;;;;4971293;28;20353;-76
2022/10/22 10:26:30;;;;;;;27.25;16.48;;;;;;;;;;4966195;28;20152;-77
2022/10/22 10:29:17;;;;;;;29.63;18.48;;;;;;;;;;4970953;28;20049;-77
2022/10/22 10:31:55;;;;;;;32.30;18.30;;;;;;;;;;4969695;28;20030;-77
2022/10/22 10:34:39;;;;;;;32.15;18.45;;;;;;;;;;4969682;28;20371;-77
2022/10/22 10:37:26;;;;;;;28.83;17.35;;;;;;;;;;4969693;28;20451;-80
2022/10/22 10:40:16;;;;;;;26.85;17.52;;;;;;;;;;4966808;28;20031;-77
2022/10/22 10:42:56;;;;;;;31.02;18.50;;;;;;;;;;4970078;28;20035;-77
2022/10/22 10:45:24;;;;;;;29.23;17.58;;;;;;;;;;4969661;28;20037;-78
2022/10/22 10:48:11;;;;;;;28.95;18.60;;;;;;;;;;4969572;28;20034;-77
2022/10/22 10:51:01;;;;;;;26.08;18.35;;;;;;;;;;4970839;28;20027;-77
2022/10/22 10:53:36;;;;;;;29.80;17.90;;;;;;;;;;4971079;28;20042;-77
2022/10/22 10:56:23;;;;;;;29.45;17.40;;;;;;;;;;4969771;28;20575;-77
2022/10/22 10:59:10;;;;;;;29.92;18.77;;;;;;;;;;4970073;28;20027;-77
2022/10/22 11:01:58;;;;;;;26.17;18.25;;;;;;;;;;4971868;28;20169;-77
2022/10/22 11:04:51;;;;;;;26.92;16.63;;;;;;;;;;4972063;28;20023;-76
2022/10/22 11:07:23;;;;;;;26.83;17.00;;;;;;;;;;4971682;28;20097;-77
2022/10/22 11:10:24;;;;;;;27.10;17.42;;;;;;;;;;4969843;28;20492;-78
2022/10/22 11:12:52;;;;;;;;;;;;;;;;;;4963117;28;20387;-77
2022/10/22 11:15:32;;;;;;;18.35;12.75;;;;;;;;;;4971611;28;20421;-78
2022/10/22 11:18:09;;;;;;;18.77;12.32;;;;;;;;;;4969780;28;20074;-77
2022/10/22 11:20:42;;;;;;;17.52;11.18;;;;;;;;;;4970309;28;20651;-77
2022/10/22 11:23:23;;;;;;;14.05;7.93;;;;;;;;;;4970621;28;20062;-77
2022/10/22 11:25:49;;;;;;;11.68;6.10;;;;;;;;;;4971358;28;20153;-77
2022/10/22 11:28:27;;;;;;;10.02;6.75;;;;;;;;;;4973105;28;20031;-77
2022/10/22 11:30:59;;;;;;;8.82;6.65;;;;;;;;;;4972150;28;20033;-78
2022/10/22 11:33:31;;;;;;;9.95;6.00;;;;;;;;;;4972916;28;20034;-78
2022/10/22 11:35:59;;;;;;;8.38;6.20;;;;;;;;;;4974082;28;20403;-78
2022/10/22 11:38:25;;;;;;;8.00;5.68;;;;;;;;;;4972826;28;20027;-77
2022/10/22 11:41:01;;;;;;;10.77;5.07;;;;;;;;;;4972801;28;20039;-77
2022/10/22 11:43:32;;;;;;;9.55;5.90;;;;;;;;;;4974590;28;20129;-78
2022/10/22 11:46:24;;;;;;;7.22;4.95;;;;;;;;;;4973618;28;20031;-77
2022/10/22 11:49:03;;;;;;;;;;;;;;;;;;4973890;28;20138;-78
2022/10/22 11:51:35;;;;;;;7.68;4.82;;;;;;;;;;4973141;28;19918;-78
2022/10/22 11:54:25;;;;;;;10.55;6.57;;;;;;;;;;4973289;28;20348;-78
2022/10/22 11:57:15;;;;;;;9.38;5.18;;;;;;;;;;4972417;28;20061;-78
2022/10/22 11:59:44;;;;;;;8.77;6.28;;;;;;;;;;4972231;28;20074;-77
2022/10/22 12:02:41;;;;;;;6.88;4.95;;;;;;;;;;4973718;28;20038;-77
2022/10/22 12:05:22;;;;;;;8.00;5.00;;;;;;;;;;4973770;28;20364;-78
2022/10/22 12:07:58;;;;;;;7.20;4.95;;;;;;;;;;4972121;28;20423;-77
2022/10/22 12:10:34;;;;;;;10.43;4.30;;;;;;;;;;4972116;28;20087;-77
2022/10/22 12:13:22;;;;;;;5.40;4.15;;;;;;;;;;4972043;28;20121;-77
2022/10/22 12:15:53;;;;;;;8.60;5.10;;;;;;;;;;4971922;28;20081;-77
2022/10/22 12:18:24;;;;;;;10.35;6.03;;;;;;;;;;4973685;28;20060;-78
2022/10/22 12:20:51;;;;;;;;;;;;;;;;;;4972748;28;20118;-76
2022/10/22 12:23:17;;;;;;;5.60;3.55;;;;;;;;;;4973197;28;20025;-80
2022/10/22 12:25:43;;;;;;;7.60;3.92;;;;;;;;;;4955645;28;20138;-78
2022/10/22 12:28:12;;;;;;;8.68;4.30;;;;;;;;;;4972597;28;20431;-77
2022/10/22 12:30:38;;;;;;;4.63;3.15;;;;;;;;;;4972150;28;20038;-77
2022/10/22 12:33:05;;;;;;;5.28;3.88;;;;;;;;;;4973767;28;20364;-77
2022/10/22 12:35:40;;;;;;;4.95;3.55;;;;;;;;;;4972723;28;20030;-77
2022/10/22 12:38:19;;;;;;;10.95;4.55;;;;;;;;;;4970945;28;20474;-77
2022/10/22 12:40:44;;;;;;;5.50;3.75;;;;;;;;;;4972032;28;20023;-77
2022/10/22 12:43:40;;;;;;;7.18;3.00;;;;;;;;;;4972892;28;20023;-78
2022/10/22 12:46:15;;;;;;;8.07;3.40;;;;;;;;;;4970948;28;20062;-76
2022/10/22 12:48:44;;;;;;;3.72;2.67;;;;;;;;;;4972795;28;20427;-77
2022/10/22 12:51:18;;;;;;;7.20;3.05;;;;;;;;;;4971237;28;20050;-78
2022/10/22 12:54:05;;;;;;;6.13;3.00;;;;;;;;;;4971233;28;20402;-77
2022/10/22 12:56:33;;;;;;;3.65;2.47;;;;;;;;;;4968217;28;20058;-77
2022/10/22 12:59:21;;;;;;;4.97;2.42;;;;;;;;;;4972285;28;20112;-77
2022/10/22 13:01:48;;;;;;;2.83;2.40;;;;;;;;;;4971092;28;20491;-77
2022/10/22 13:04:27;;;;;;;5.72;2.63;;;;;;;;;;4971084;28;20097;-79
2022/10/22 13:07:11;;;;;;;6.68;2.97;;;;;;;;;;4971105;28;20081;-78
2022/10/22 13:09:43;;;;;;;3.97;2.47;;;;;;;;;;4971020;28;20121;-78
2022/10/22 13:12:15;;;;;;;6.68;2.70;;;;;;;;;;4972593;28;20027;-78
2022/10/22 13:14:42;;;;;;;6.65;3.30;;;;;;;;;;4971420;28;20035;-77
2022/10/22 13:17:18;;;;;;;5.35;2.58;;;;;;;;;;4971361;28;20033;-78
2022/10/22 13:19:52;;;;;;;3.90;2.50;;;;;;;;;;4971014;28;20031;-78
2022/10/22 13:22:52;;;;;;;3.80;2.00;;;;;;;;;;4972088;28;20026;-78
2022/10/22 13:25:25;;;;;;;4.07;2.45;;;;;;;;;;4964836;28;20050;-78
2022/10/22 13:28:11;;;;;;;2.30;1.75;;;;;;;;;;4971132;28;20181;-77
2022/10/22 13:30:38;;;;;;;4.85;2.90;;;;;;;;;;4970939;28;20045;-78
2022/10/22 13:33:05;;;;;;;2.55;2.15;;;;;;;;;;4970537;28;20049;-78
2022/10/22 13:35:36;;;;;;;10.23;4.13;;;;;;;;;;4971983;28;20031;-77
2022/10/22 13:38:02;;;;;;;5.97;1.80;;;;;;;;;;4972991;28;20041;-76
2022/10/22 13:40:28;;;;;;;6.68;2.10;;;;;;;;;;4973552;28;20026;-77
2022/10/22 13:42:53;;;;;;;4.18;2.10;;;;;;;;;;4972525;28;20066;-78
2022/10/22 13:45:19;;;;;;;4.53;2.08;;;;;;;;;;4972448;28;20022;-78
2022/10/22 13:47:52;;;;;;;16.63;5.85;;;;;;;;;;4970754;28;20034;-78
2022/10/22 13:50:19;;;;;;;6.10;2.10;;;;;;;;;;4953551;28;20053;-77
2022/10/22 13:52:48;;;;;;;8.63;3.67;;;;;;;;;;4971752;28;20105;-77
2022/10/22 13:55:27;;;;;;;3.08;1.80;;;;;;;;;;4969827;28;20031;-77
2022/10/22 13:58:09;;;;;;;10.20;4.97;;;;;;;;;;4970222;28;20075;-77
2022/10/22 14:00:37;;;;;;;;;;;;;;;;;;4972238;28;20029;-77
2022/10/22 14:03:03;;;;;;;2.83;2.25;;;;;;;;;;4969767;28;19910;-78
2022/10/22 14:05:31;;;;;;;3.00;2.15;;;;;;;;;;4971753;28;20035;-77
2022/10/22 14:07:59;;;;;;;4.82;2.08;;;;;;;;;;4969654;28;20125;-77
2022/10/22 14:10:26;;;;;;;3.10;2.17;;;;;;;;;;4969908;28;20030;-78
2022/10/22 14:12:52;;;;;;;3.78;2.85;;;;;;;;;;4970639;28;20034;-77
2022/10/22 14:15:19;;;;;;;6.32;2.53;;;;;;;;;;4970093;28;20101;-78
2022/10/22 14:18:05;;;;;;;3.03;1.92;;;;;;;;;;4953969;28;20034;-76
2022/10/22 14:20:34;;;;;;;3.53;2.13;;;;;;;;;;4971750;28;20170;-77
2022/10/22 14:23:11;;;;;;;2.40;1.70;;;;;;;;;;4972095;28;20050;-78
2022/10/22 14:25:37;;;;;;;4.13;2.03;;;;;;;;;;4970707;28;20526;-78
2022/10/22 14:28:03;;;;;;;5.07;2.63;;;;;;;;;;4969535;28;20031;-78
2022/10/22 14:30:29;;;;;;;3.40;1.98;;;;;;;;;;4969708;28;20047;-78
2022/10/22 14:32:58;;;;;;;3.55;2.22;;;;;;;;;;4971179;28;20031;-78
2022/10/22 14:35:24;;;;;;;3.58;2.17;;;;;;;;;;4970235;28;20038;-78
2022/10/22 14:37:51;;;;;;;3.15;1.90;;;;;;;;;;4954993;28;20038;-78
2022/10/22 14:40:19;;;;;;;6.30;2.40;;;;;;;;;;4972554;28;20035;-79
2022/10/22 14:42:46;;;;;;;6.13;2.72;;;;;;;;;;4953978;28;20031;-77
2022/10/22 14:45:24;;;;;;;6.90;2.67;;;;;;;;;;4970977;28;20709;-78